Time;durP1;ratioP1;P1;durP2;ratioP2;P2;SDS_P1;SDS_P2;PMS_P1;PMS_P2;Temp;Humidity;BMP_temperature;BMP_pressure;BME280_temperature;BME280_humidity;BME280_pressure;Samples;Min_cycle;Max_cycle;Signal;HPM_P1;HPM_P2
2022/06/08 00:02:23;;;;;;;;;;;;;;;14.30;95.11;99239.00;1707553;84;20086;-64
2022/06/08 00:04:50;;;;;;;;;;;;;;;14.26;95.62;99238.66;1707706;84;20421;-64
2022/06/08 00:07:18;;;;;;;;;;;;;;;14.24;95.98;99248.67;1707624;84;20098;-64
2022/06/08 00:09:46;;;;;;;;;;;;;;;14.21;95.88;99242.46;1707661;84;20115;-64
2022/06/08 00:12:12;;;;;;;;;;;;;;;14.17;96.18;99240.16;1707687;84;20422;-64
2022/06/08 00:14:39;;;;;;;;;;;;;;;14.13;96.41;99242.01;1703816;84;20089;-64
2022/06/08 00:17:07;;;;;;;;;;;;;;;14.09;96.45;99241.09;1699602;84;20086;-64
2022/06/08 00:19:34;;;;;;;;;;;;;;;14.05;96.67;99239.59;1686639;84;20433;-64
2022/06/08 00:22:01;;;;;;;;;;;;;;;14.02;96.88;99236.15;1679273;85;21108;-63
2022/06/08 00:24:27;;;;;;;;;;;;;;;14.00;96.94;99233.50;1679271;85;20118;-64
2022/06/08 00:26:54;;;;;;;;;;;;;;;13.98;97.09;99238.56;1674306;85;20124;-63
2022/06/08 00:29:21;;;;;;;;;;;;;;;13.96;97.16;99233.39;1674115;85;20125;-63
2022/06/08 00:31:48;;;;;;;;;;;;;;;13.94;97.13;99234.88;1674213;84;20481;-63
2022/06/08 00:34:14;;;;;;;;;;;;;;;13.91;97.04;99239.14;1673991;85;21172;-63
2022/06/08 00:36:41;;;;;;;;;;;;;;;13.86;97.10;99234.66;1673955;85;20125;-63
2022/06/08 00:39:09;;;;;;;;;;;;;;;13.84;97.25;99232.84;1674039;85;20129;-63
2022/06/08 00:41:49;;;;;;;;;;;;;;;13.82;97.30;99232.39;1674081;85;20127;-64
2022/06/08 00:44:22;;;;;;;;;;;;;;;13.79;97.29;99230.89;1673740;85;20129;-63
2022/06/08 00:46:49;;;;;;;;;;;;;;;13.75;97.44;99228.02;1673221;85;21224;-63
2022/06/08 00:49:23;;;;;;;;;;;;;;;13.72;97.63;99226.52;1674041;85;20109;-63
2022/06/08 00:51:50;;;;;;;;;;;;;;;13.70;97.63;99221.92;1674172;85;20125;-64
2022/06/08 00:54:23;;;;;;;;;;;;;;;13.66;97.97;99221.80;1654905;85;20461;-64
2022/06/08 00:56:53;;;;;;;;;;;;;;;13.59;98.16;99211.91;1674131;85;20089;-64
2022/06/08 00:59:20;;;;;;;;;;;;;;;13.49;98.34;99217.30;1674015;85;21153;-64
2022/06/08 01:01:47;;;;;;;;;;;;;;;13.44;98.70;99211.20;1674000;85;20089;-64
2022/06/08 01:04:17;;;;;;;;;;;;;;;13.40;99.01;99213.84;1674120;85;20136;-64
2022/06/08 01:06:53;;;;;;;;;;;;;;;13.39;99.39;99212.23;1673985;85;20149;-64
2022/06/08 01:09:23;;;;;;;;;;;;;;;13.38;99.61;99214.75;1674138;85;20420;-64
2022/06/08 01:11:50;;;;;;;;;;;;;;;13.36;99.65;99214.30;1673269;85;21820;-64
2022/06/08 01:14:18;;;;;;;;;;;;;;;13.36;99.52;99216.24;1674166;85;20444;-64
2022/06/08 01:16:49;;;;;;;;;;;;;;;13.33;99.69;99217.73;1674294;85;20451;-64
2022/06/08 01:19:15;;;;;;;;;;;;;;;13.31;99.71;99212.33;1674250;85;20527;-64
2022/06/08 01:21:45;;;;;;;;;;;;;;;13.28;99.73;99215.22;1674024;85;20101;-64
2022/06/08 01:24:13;;;;;;;;;;;;;;;13.25;99.72;99213.72;1673539;85;21135;-64
2022/06/08 01:26:51;;;;;;;;;;;;;;;13.23;99.92;99210.50;1674239;84;20093;-64
2022/06/08 01:29:36;;;;;;;;;;;;;;;13.19;99.95;99211.19;1673083;85;20129;-64
2022/06/08 01:32:06;;;;;;;;;;;;;;;13.17;99.92;99209.34;1664618;86;20129;-64
2022/06/08 01:34:46;;;;;;;;;;;;;;;13.13;99.94;99207.00;1664547;86;20189;-64
2022/06/08 01:37:45;;;;;;;;;;;;;;;13.10;99.92;99208.25;1664724;86;21149;-64
2022/06/08 01:40:41;;;;;;;;;;;;;;;13.06;99.94;99208.70;1664548;86;20134;-64
2022/06/08 01:43:26;;;;;;;;;;;;;;;13.02;100.00;99211.91;1664606;86;20117;-63
2022/06/08 01:46:00;;;;;;;;;;;;;;;12.99;100.00;99207.07;1664554;86;20129;-64
2022/06/08 01:48:42;;;;;;;;;;;;;;;12.96;100.00;99214.06;1664947;86;20149;-64
2022/06/08 01:51:21;;;;;;;;;;;;;;;12.94;100.00;99206.71;1664153;86;21449;-64
2022/06/08 01:54:10;;;;;;;;;;;;;;;12.92;100.00;99207.63;1664841;86;38442;-64
2022/06/08 01:56:52;;;;;;;;;;;;;;;12.87;100.00;99208.64;1664471;86;20141;-64
2022/06/08 01:59:41;;;;;;;;;;;;;;;12.85;100.00;99207.36;1664531;86;20736;-64
2022/06/08 02:02:22;;;;;;;;;;;;;;;12.84;100.00;99214.83;1664615;86;20117;-64
2022/06/08 02:04:58;;;;;;;;;;;;;;;12.84;100.00;99205.76;1664892;86;21785;-64
2022/06/08 02:07:32;;;;;;;;;;;;;;;12.81;100.00;99205.05;1664522;86;20176;-64
2022/06/08 02:10:14;;;;;;;;;;;;;;;12.81;100.00;99207.81;1664513;86;20113;-65
2022/06/08 02:12:44;;;;;;;;;;;;;;;12.80;100.00;99211.70;1647473;86;20557;-65
2022/06/08 02:15:16;;;;;;;;;;;;;;;12.81;100.00;99210.56;1664905;86;20133;-65
2022/06/08 02:17:48;;;;;;;;;;;;;;;12.79;100.00;99208.15;1664745;86;21159;-65
2022/06/08 02:20:31;;;;;;;;;;;;;;;12.80;100.00;99213.09;1666597;85;20557;-65
2022/06/08 02:23:15;;;;;;;;;;;;;;;12.80;100.00;99215.84;1676212;84;20121;-65
2022/06/08 02:25:54;;;;;;;;;;;;;;;12.82;100.00;99217.69;1695464;83;20174;-65
2022/06/08 02:28:37;;;;;;;;;;;;;;;12.85;100.00;99217.01;1707497;84;20142;-65
2022/06/08 02:31:23;;;;;;;;;;;;;;;12.89;100.00;99215.19;1707067;83;21159;-65
2022/06/08 02:36:50;;;;;;;;;;;;;;;12.93;100.00;99218.88;1707490;84;20102;-65
2022/06/08 02:39:20;;;;;;;;;;;;;;;12.96;100.00;99217.39;1701199;84;20180;-65
2022/06/08 02:41:47;;;;;;;;;;;;;;;13.00;100.00;99220.51;1679060;85;20479;-65
2022/06/08 02:44:18;;;;;;;;;;;;;;;13.05;100.00;99214.78;1678976;85;20173;-65
2022/06/08 02:46:51;;;;;;;;;;;;;;;13.10;100.00;99217.90;1678913;85;20143;-65
2022/06/08 02:49:18;;;;;;;;;;;;;;;13.15;100.00;99217.69;1691693;84;20474;-65
2022/06/08 02:51:46;;;;;;;;;;;;;;;13.22;100.00;99217.97;1685821;84;20205;-65
2022/06/08 02:54:17;;;;;;;;;;;;;;;13.28;100.00;99217.98;1651815;84;20129;-65
2022/06/08 02:57:09;;;;;;;;;;;;;;;13.34;100.00;99216.58;1688808;84;21746;-65
2022/06/08 02:59:59;;;;;;;;;;;;;;;13.41;100.00;99221.53;1678982;85;20232;-65
2022/06/08 03:02:36;;;;;;;;;;;;;;;13.51;100.00;99224.66;1678998;85;20471;-65
2022/06/08 03:05:08;;;;;;;;;;;;;;;13.62;100.00;99222.83;1678957;85;20144;-64
2022/06/08 03:07:43;;;;;;;;;;;;;;;13.71;100.00;99219.39;1678953;85;20168;-64
2022/06/08 03:10:11;;;;;;;;;;;;;;;13.77;100.00;99218.82;1679195;85;21927;-64
2022/06/08 03:12:40;;;;;;;;;;;;;;;13.88;100.00;99212.23;1678892;85;20467;-64
2022/06/08 03:15:08;;;;;;;;;;;;;;;13.97;100.00;99212.92;1678996;85;20132;-64
2022/06/08 03:17:37;;;;;;;;;;;;;;;14.08;100.00;99215.45;1679034;85;20152;-64
2022/06/08 03:20:06;;;;;;;;;;;;;;;14.19;100.00;99215.77;1678945;85;20120;-64
2022/06/08 03:22:33;;;;;;;;;;;;;;;14.31;100.00;99217.14;1679213;85;21115;-65
2022/06/08 03:25:00;;;;;;;;;;;;;;;14.41;100.00;99216.69;1679025;85;20474;-65
2022/06/08 03:27:26;;;;;;;;;;;;;;;14.53;100.00;99218.01;1693308;83;20145;-64
2022/06/08 03:29:54;;;;;;;;;;;;;;;14.66;100.00;99217.97;1691879;84;20225;-65
2022/06/08 03:32:22;;;;;;;;;;;;;;;14.80;100.00;99215.62;1677623;84;20114;-65
2022/06/08 03:34:50;;;;;;;;;;;;;;;14.95;100.00;99218.20;1707400;84;21192;-64
2022/06/08 03:37:17;;;;;;;;;;;;;;;15.10;100.00;99217.41;1707220;84;20150;-67
2022/06/08 03:39:45;;;;;;;;;;;;;;;15.26;100.00;99218.83;1707257;83;20153;-65
2022/06/08 03:42:11;;;;;;;;;;;;;;;15.42;100.00;99214.13;1707377;84;20142;-64
2022/06/08 03:44:40;;;;;;;;;;;;;;;15.58;98.58;99216.34;1707323;84;20122;-65
2022/06/08 03:47:09;;;;;;;;;;;;;;;15.74;96.84;99214.94;1707404;84;21084;-64
2022/06/08 03:49:37;;;;;;;;;;;;;;;15.91;93.71;99213.77;1707194;84;20114;-64
2022/06/08 03:52:06;;;;;;;;;;;;;;;16.10;91.98;99214.63;1707332;84;20133;-64
2022/06/08 03:54:36;;;;;;;;;;;;;;;16.30;90.81;99216.03;1707278;84;20142;-64
2022/06/08 03:57:03;;;;;;;;;;;;;;;16.49;89.18;99215.48;1707564;84;20114;-64
2022/06/08 03:59:31;;;;;;;;;;;;;;;16.69;88.57;99222.45;1707359;84;21883;-64
2022/06/08 04:01:58;;;;;;;;;;;;;;;16.85;88.23;99221.77;1707331;84;20474;-64
2022/06/08 04:04:25;;;;;;;;;;;;;;;17.00;86.79;99225.05;1707225;84;20201;-64
2022/06/08 04:06:51;;;;;;;;;;;;;;;17.16;85.52;99223.58;1707368;84;20146;-64
2022/06/08 04:09:18;;;;;;;;;;;;;;;17.34;84.81;99227.45;1707259;84;20485;-64
2022/06/08 04:11:47;;;;;;;;;;;;;;;17.53;83.87;99234.13;1707277;84;21197;-64
2022/06/08 04:14:14;;;;;;;;;;;;;;;17.68;82.46;99224.91;1707538;84;20441;-64
2022/06/08 04:16:41;;;;;;;;;;;;;;;17.79;80.88;99223.92;1677686;84;20500;-64
2022/06/08 04:19:10;;;;;;;;;;;;;;;17.89;79.93;99220.30;1707210;84;20914;-64
2022/06/08 04:21:37;;;;;;;;;;;;;;;17.99;80.20;99225.20;1707584;84;20468;-64
2022/06/08 04:24:07;;;;;;;;;;;;;;;18.08;79.90;99227.12;1707538;84;20572;-64
2022/06/08 04:26:33;;;;;;;;;;;;;;;18.15;76.86;99223.87;1707304;84;20125;-64
2022/06/08 04:29:03;;;;;;;;;;;;;;;18.27;75.97;99229.00;1707379;83;20150;-63
2022/06/08 04:31:34;;;;;;;;;;;;;;;18.38;73.39;99222.42;1704268;83;20138;-63
2022/06/08 04:34:04;;;;;;;;;;;;;;;18.48;73.05;99226.53;1703563;83;20145;-63
2022/06/08 04:36:33;;;;;;;;;;;;;;;18.59;72.65;99235.79;1690914;84;21142;-65
2022/06/08 04:38:59;;;;;;;;;;;;;;;18.69;71.38;99235.16;1698496;84;20142;-63
2022/06/08 04:41:27;;;;;;;;;;;;;;;18.77;72.00;99237.45;1707456;84;20501;-63
2022/06/08 04:43:55;;;;;;;;;;;;;;;18.82;71.25;99239.89;1707205;84;20889;-65
2022/06/08 04:46:22;;;;;;;;;;;;;;;18.87;71.52;99240.95;1707262;84;20149;-63
2022/06/08 04:48:50;;;;;;;;;;;;;;;18.94;71.79;99239.66;1707391;84;21224;-63
2022/06/08 04:51:18;;;;;;;;;;;;;;;19.03;71.99;99244.34;1684016;84;20152;-65
2022/06/08 04:53:47;;;;;;;;;;;;;;;19.11;72.29;99246.58;1678969;85;20160;-65
2022/06/08 04:56:14;;;;;;;;;;;;;;;19.19;72.59;99244.68;1678872;85;20128;-66
2022/06/08 04:58:42;;;;;;;;;;;;;;;19.27;73.35;99249.14;1678878;85;20120;-65
2022/06/08 05:01:09;;;;;;;;;;;;;;;19.35;72.93;99248.04;1678815;85;21135;-65
2022/06/08 05:03:36;;;;;;;;;;;;;;;19.44;72.94;99248.53;1678742;85;20156;-66
2022/06/08 05:06:03;;;;;;;;;;;;;;;19.51;73.76;99250.03;1678903;85;20120;-64
2022/06/08 05:08:34;;;;;;;;;;;;;;;19.60;74.82;99244.95;1679191;85;20147;-66
2022/06/08 05:11:04;;;;;;;;;;;;;;;19.73;74.85;99246.24;1679082;84;20480;-65
2022/06/08 05:13:31;;;;;;;;;;;;;;;19.87;74.66;99243.38;1678958;85;20172;-65
2022/06/08 05:15:59;;;;;;;;;;;;;;;19.99;73.35;99242.48;1678545;85;20441;-65
2022/06/08 05:18:26;;;;;;;;;;;;;;;20.13;72.94;99239.61;1679139;85;20472;-65
2022/06/08 05:20:54;;;;;;;;;;;;;;;20.26;72.62;99235.30;1678940;85;20209;-64
2022/06/08 05:23:26;;;;;;;;;;;;;;;20.38;71.62;99234.41;1679234;85;20147;-64
2022/06/08 05:25:53;;;;;;;;;;;;;;;20.48;70.20;99237.06;1678843;85;21143;-64
2022/06/08 05:28:22;;;;;;;;;;;;;;;20.58;71.34;99234.13;1678780;85;20483;-68
2022/06/08 05:30:51;;;;;;;;;;;;;;;20.69;69.62;99232.20;1678867;84;20128;-67
2022/06/08 05:33:18;;;;;;;;;;;;;;;20.82;67.91;99235.42;1678674;85;20128;-68
2022/06/08 05:35:46;;;;;;;;;;;;;;;20.94;67.34;99229.49;1678959;85;20125;-68
2022/06/08 05:38:13;;;;;;;;;;;;;;;21.07;67.00;99237.12;1703411;84;21145;-65
2022/06/08 05:40:41;;;;;;;;;;;;;;;21.20;65.45;99236.16;1705737;83;20457;-66
2022/06/08 05:43:09;;;;;;;;;;;;;;;21.33;65.60;99233.84;1705704;84;20210;-64
2022/06/08 05:45:38;;;;;;;;;;;;;;;21.46;65.01;99224.47;1699302;83;20126;-65
2022/06/08 05:48:05;;;;;;;;;;;;;;;21.58;63.52;99229.67;1705709;83;20146;-65
2022/06/08 05:50:32;;;;;;;;;;;;;;;21.72;61.70;99236.08;1705809;83;21849;-64
2022/06/08 05:52:59;;;;;;;;;;;;;;;21.84;61.28;99234.09;1703057;83;20126;-65
2022/06/08 05:55:26;;;;;;;;;;;;;;;21.97;61.60;99239.45;1678418;85;20188;-65
2022/06/08 05:57:53;;;;;;;;;;;;;;;22.11;62.19;99236.68;1678095;85;20180;-68
2022/06/08 06:00:25;;;;;;;;;;;;;;;22.22;61.80;99235.27;1678545;85;20128;-66
2022/06/08 06:02:52;;;;;;;;;;;;;;;22.31;60.82;99230.87;1678823;85;21796;-65
2022/06/08 06:05:22;;;;;;;;;;;;;;;22.40;59.81;99231.85;1678729;85;20140;-65
2022/06/08 06:07:48;;;;;;;;;;;;;;;22.51;59.70;99234.62;1679188;85;20128;-65
2022/06/08 06:10:21;;;;;;;;;;;;;;;22.60;60.53;99230.78;1676659;85;20163;-67
2022/06/08 06:12:51;;;;;;;;;;;;;;;22.71;61.47;99230.15;1678603;85;20140;-65
2022/06/08 06:15:18;;;;;;;;;;;;;;;22.83;61.19;99226.14;1649699;85;21705;-68
2022/06/08 06:17:47;;;;;;;;;;;;;;;22.94;60.03;99229.70;1678661;85;20231;-70
2022/06/08 06:20:13;;;;;;;;;;;;;;;23.02;61.08;99227.06;1678820;85;20145;-69
2022/06/08 06:22:42;;;;;;;;;;;;;;;23.12;60.08;99228.98;1660888;85;21014;-70
2022/06/08 06:25:11;;;;;;;;;;;;;;;23.20;59.93;99219.95;1675025;85;20436;-69
2022/06/08 06:27:42;;;;;;;;;;;;;;;23.23;58.56;99225.53;1676475;85;21177;-69
2022/06/08 06:30:26;;;;;;;;;;;;;;;23.28;59.14;99222.91;1678693;85;20199;-70
2022/06/08 06:32:54;;;;;;;;;;;;;;;23.36;58.32;99225.86;1677265;85;20152;-68
2022/06/08 06:35:25;;;;;;;;;;;;;;;23.41;56.94;99219.83;1666917;84;20638;-69
2022/06/08 06:37:53;;;;;;;;;;;;;;;23.49;57.95;99221.38;1664417;86;20501;-68
2022/06/08 06:40:21;;;;;;;;;;;;;;;23.63;59.11;99217.71;1668384;85;21171;-68
2022/06/08 06:42:50;;;;;;;;;;;;;;;23.75;57.63;99216.39;1680652;85;20458;-68
2022/06/08 06:45:27;;;;;;;;;;;;;;;23.85;57.60;99215.52;1664312;86;20153;-68
2022/06/08 06:48:02;;;;;;;;;;;;;;;23.95;55.61;99217.44;1664285;86;20117;-67
2022/06/08 06:50:31;;;;;;;;;;;;;;;24.02;55.91;99223.77;1664582;86;20153;-67
2022/06/08 06:52:59;;;;;;;;;;;;;;;24.13;55.03;99220.08;1664717;86;21761;-67
2022/06/08 06:55:30;;;;;;;;;;;;;;;24.22;55.07;99221.20;1664423;86;20125;-67
2022/06/08 06:58:01;;;;;;;;;;;;;;;24.33;53.45;99225.30;1662354;86;20161;-67
2022/06/08 07:00:30;;;;;;;;;;;;;;;24.40;52.26;99213.20;1664088;86;20247;-66
2022/06/08 07:03:00;;;;;;;;;;;;;;;24.50;52.08;99222.13;1664492;86;20209;-67
2022/06/08 07:05:29;;;;;;;;;;;;;;;24.55;51.39;99218.86;1664532;86;20537;-67
2022/06/08 07:07:56;;;;;;;;;;;;;;;24.59;51.69;99215.41;1664664;86;20233;-67
2022/06/08 07:10:24;;;;;;;;;;;;;;;24.63;51.63;99218.97;1664747;86;20467;-70
2022/06/08 07:12:51;;;;;;;;;;;;;;;24.76;52.10;99219.23;1664689;86;20129;-68
2022/06/08 07:15:19;;;;;;;;;;;;;;;24.88;50.61;99217.25;1664866;86;20483;-69
2022/06/08 07:17:45;;;;;;;;;;;;;;;24.95;47.55;99216.55;1664580;86;21149;-71
2022/06/08 07:20:13;;;;;;;;;;;;;;;25.04;48.14;99213.27;1664569;86;20121;-71
2022/06/08 07:22:40;;;;;;;;;;;;;;;25.15;45.29;99210.31;1664698;86;20153;-70
2022/06/08 07:25:07;;;;;;;;;;;;;;;25.23;44.72;99210.41;1664539;86;20882;-68
2022/06/08 07:27:35;;;;;;;;;;;;;;;25.25;43.18;99207.97;1664755;86;20197;-68
2022/06/08 07:30:04;;;;;;;;;;;;;;;25.25;43.40;99204.55;1664623;86;21168;-67
2022/06/08 07:32:31;;;;;;;;;;;;;;;25.36;44.16;99210.02;1664533;86;20117;-66
2022/06/08 07:34:57;;;;;;;;;;;;;;;25.51;42.61;99205.75;1664542;84;20477;-70
2022/06/08 07:37:25;;;;;;;;;;;;;;;25.65;39.46;99214.61;1664648;86;20118;-68
2022/06/08 07:39:52;;;;;;;;;;;;;;;25.68;38.94;99215.16;1664553;85;20166;-67
2022/06/08 07:42:18;;;;;;;;;;;;;;;25.75;39.56;99214.25;1664563;86;21156;-67
2022/06/08 07:44:45;;;;;;;;;;;;;;;25.85;41.34;99214.70;1664567;86;20117;-67
2022/06/08 07:47:11;;;;;;;;;;;;;;;25.99;41.55;99213.84;1664541;86;20118;-67
2022/06/08 07:49:39;;;;;;;;;;;;;;;26.16;41.48;99206.30;1664472;86;20650;-67
2022/06/08 07:52:17;;;;;;;;;;;;;;;26.34;39.76;99211.63;1664650;86;20168;-67
2022/06/08 07:54:44;;;;;;;;;;;;;;;26.46;38.78;99209.59;1664508;86;21792;-67
2022/06/08 07:57:20;;;;;;;;;;;;;;;26.59;38.46;99218.17;1679536;85;20205;-67
2022/06/08 07:59:48;;;;;;;;;;;;;;;26.62;38.37;99210.27;1688977;84;20130;-69
2022/06/08 08:02:14;;;;;;;;;;;;;;;26.71;40.58;99217.53;1692530;85;20465;-72
2022/06/08 08:04:41;;;;;;;;;;;;;;;26.87;38.31;99206.34;1692483;85;20118;-69
2022/06/08 08:07:10;;;;;;;;;;;;;;;27.03;39.69;99212.69;1692441;85;20457;-73
2022/06/08 08:09:38;;;;;;;;;;;;;;;27.24;39.33;99210.78;1692279;85;20126;-72
2022/06/08 08:12:06;;;;;;;;;;;;;;;27.38;39.31;99211.08;1692655;85;20422;-71
2022/06/08 08:14:33;;;;;;;;;;;;;;;27.51;39.10;99206.34;1692434;85;20131;-69
2022/06/08 08:17:01;;;;;;;;;;;;;;;27.66;36.60;99209.66;1689932;85;20155;-71
2022/06/08 08:19:28;;;;;;;;;;;;;;;27.63;34.64;99208.33;1678986;85;21152;-67
2022/06/08 08:21:56;;;;;;;;;;;;;;;27.64;35.70;99207.09;1664571;86;20117;-72
2022/06/08 08:24:22;;;;;;;;;;;;;;;27.79;36.10;99209.11;1664624;86;20456;-71
2022/06/08 08:26:49;;;;;;;;;;;;;;;28.12;37.59;99210.51;1664571;86;20141;-73
2022/06/08 08:29:17;;;;;;;;;;;;;;;28.45;37.66;99210.63;1664570;86;20208;-72
2022/06/08 08:31:44;;;;;;;;;;;;;;;28.76;35.72;99205.34;1668520;85;21048;-71
2022/06/08 08:34:10;;;;;;;;;;;;;;;28.99;34.67;99201.45;1677861;85;20449;-74
2022/06/08 08:36:37;;;;;;;;;;;;;;;29.13;35.60;99201.64;1678813;85;20152;-72
2022/06/08 08:39:04;;;;;;;;;;;;;;;29.31;34.34;99196.24;1678894;85;20128;-72
2022/06/08 08:44:34;;;;;;;;;;;;;;;29.63;32.75;99187.37;1678886;85;21264;-68
2022/06/08 08:47:25;;;;;;;;;;;;;;;29.61;31.36;99184.20;1679074;85;20105;-68
2022/06/08 08:49:58;;;;;;;;;;;;;;;29.43;31.63;99180.56;1678743;85;20153;-70
2022/06/08 08:52:49;;;;;;;;;;;;;;;29.49;33.71;99185.79;1678516;85;20149;-68
2022/06/08 08:55:25;;;;;;;;;;;;;;;29.70;32.34;99188.55;1677929;85;20203;-68
2022/06/08 08:58:04;;;;;;;;;;;;;;;29.85;31.69;99185.42;1678900;85;21163;-69
2022/06/08 09:00:38;;;;;;;;;;;;;;;29.99;33.02;99179.28;1649933;85;20191;-71
2022/06/08 09:03:32;;;;;;;;;;;;;;;30.22;31.80;99175.27;1695674;84;20143;-70
2022/06/08 09:06:20;;;;;;;;;;;;;;;30.39;32.99;99180.92;1703438;84;20471;-70
2022/06/08 09:08:51;;;;;;;;;;;;;;;30.63;33.09;99174.81;1704526;84;20509;-70
2022/06/08 09:11:26;;;;;;;;;;;;;;;30.78;32.41;99179.50;1705499;84;21156;-71
2022/06/08 09:13:55;;;;;;;;;;;;;;;30.84;29.00;99179.69;1705779;84;20170;-67
2022/06/08 09:16:37;;;;;;;;;;;;;;;30.76;31.34;99176.95;1705624;84;20477;-68
2022/06/08 09:19:28;;;;;;;;;;;;;;;30.92;30.56;99181.01;1705748;82;20154;-67
2022/06/08 09:22:01;;;;;;;;;;;;;;;31.05;28.72;99164.71;1705706;84;20170;-66
2022/06/08 09:24:31;;;;;;;;;;;;;;;31.20;29.14;99168.57;1705923;84;21113;-66
2022/06/08 09:27:22;;;;;;;;;;;;;;;30.90;28.44;99175.64;1705558;84;20118;-66
2022/06/08 09:29:57;;;;;;;;;;;;;;;30.68;30.20;99172.19;1705709;84;20154;-66
2022/06/08 09:32:36;;;;;;;;;;;;;;;30.65;29.09;99170.90;1705394;83;20478;-67
2022/06/08 09:35:07;;;;;;;;;;;;;;;30.57;28.47;99167.56;1701278;83;20126;-67
2022/06/08 09:37:33;;;;;;;;;;;;;;;30.59;29.72;99167.89;1689715;84;21154;-67
2022/06/08 09:40:01;;;;;;;;;;;;;;;30.78;29.76;99169.58;1691583;85;20115;-68
2022/06/08 09:42:53;;;;;;;;;;;;;;;30.97;29.56;99162.61;1690894;84;20134;-67
2022/06/08 09:45:29;;;;;;;;;;;;;;;31.08;30.81;99156.70;1710839;84;20260;-67
2022/06/08 09:51:27;;;;;;;;;;;;;;;31.57;28.62;99150.92;1683079;84;21167;-67
2022/06/08 09:54:12;;;;;;;;;;;;;;;31.94;29.30;99145.50;1664445;86;20468;-67
2022/06/08 09:56:42;;;;;;;;;;;;;;;32.22;28.50;99144.11;1686899;84;20126;-67
2022/06/08 09:59:20;;;;;;;;;;;;;;;32.43;29.50;99144.58;1692411;85;20131;-67
2022/06/08 10:01:51;;;;;;;;;;;;;;;32.56;29.80;99143.78;1688929;84;20119;-67
2022/06/08 10:04:37;;;;;;;;;;;;;;;32.53;26.11;99143.31;1661123;85;21240;-72
2022/06/08 10:07:13;;;;;;;;;;;;;;;32.23;26.19;99147.13;1692253;85;20502;-73
2022/06/08 10:10:11;;;;;;;;;;;;;;;31.89;27.89;99139.02;1692282;85;20151;-64
2022/06/08 10:12:59;;;;;;;;;;;;;;;31.70;27.44;99126.09;1692333;85;20515;-70
2022/06/08 10:15:35;;;;;;;;;;;;;;;31.46;27.23;99127.25;1692343;85;20190;-69
2022/06/08 10:18:27;;;;;;;;;;;;;;;31.12;27.25;99138.13;1691765;85;21107;-70
2022/06/08 10:20:56;;;;;;;;;;;;;;;30.84;27.66;99140.81;1689233;85;20204;-65
2022/06/08 10:23:57;;;;;;;;;;;;;;;30.84;29.71;99132.31;1692509;85;20124;-66
2022/06/08 10:26:36;;;;;;;;;;;;;;;31.15;28.97;99123.84;1692409;85;20151;-69
2022/06/08 10:29:26;;;;;;;;;;;;;;;31.63;28.02;99120.68;1692376;85;20150;-68
2022/06/08 10:32:21;;;;;;;;;;;;;;;31.89;27.55;99124.83;1692133;85;21317;-66
2022/06/08 10:34:54;;;;;;;;;;;;;;;31.94;26.79;99122.78;1679701;83;20159;-66
2022/06/08 10:37:22;;;;;;;;;;;;;;;31.96;27.59;99123.11;1729782;83;20129;-67
2022/06/08 10:39:48;;;;;;;;;;;;;;;31.96;25.78;99114.59;1717890;83;20176;-70
2022/06/08 10:42:40;;;;;;;;;;;;;;;31.77;26.99;99120.11;1722193;83;20085;-66
2022/06/08 10:45:23;;;;;;;;;;;;;;;31.76;26.46;99117.11;1722280;83;21177;-67
2022/06/08 10:48:01;;;;;;;;;;;;;;;31.74;26.21;99115.38;1721977;83;20085;-67
2022/06/08 10:50:37;;;;;;;;;;;;;;;31.58;25.25;99114.98;1722259;83;20085;-67
2022/06/08 10:56:26;;;;;;;;;;;;;;;31.53;24.92;99111.35;1721574;83;20120;-67
2022/06/08 10:59:05;;;;;;;;;;;;;;;31.48;26.50;99105.66;1699498;83;21178;-67
2022/06/08 11:01:37;;;;;;;;;;;;;;;31.67;26.28;99105.71;1722136;83;20097;-67
2022/06/08 11:04:06;;;;;;;;;;;;;;;31.61;25.27;99107.59;1722292;83;20153;-67
2022/06/08 11:06:55;;;;;;;;;;;;;;;31.60;25.09;99104.59;1722216;83;20150;-67
2022/06/08 11:09:34;;;;;;;;;;;;;;;31.51;25.29;99106.78;1722285;83;20085;-66
2022/06/08 11:12:06;;;;;;;;;;;;;;;31.53;26.14;99103.63;1722155;83;21770;-66
2022/06/08 11:14:46;;;;;;;;;;;;;;;31.76;24.77;99100.09;1721198;83;20096;-65
2022/06/08 11:17:40;;;;;;;;;;;;;;;31.85;26.71;99098.65;1720540;83;20121;-66
2022/06/08 11:20:16;;;;;;;;;;;;;;;32.10;27.93;99096.14;1721340;83;20145;-66
2022/06/08 11:23:08;;;;;;;;;;;;;;;32.32;25.00;99101.70;1722192;83;20096;-65
2022/06/08 11:25:47;;;;;;;;;;;;;;;32.24;25.49;99104.70;1721909;83;21117;-65
2022/06/08 11:28:31;;;;;;;;;;;;;;;32.07;23.61;99097.09;1719872;83;20096;-66
2022/06/08 11:31:05;;;;;;;;;;;;;;;31.96;24.95;99088.26;1693371;84;20104;-67
2022/06/08 11:33:55;;;;;;;;;;;;;;;32.02;26.91;99089.20;1693373;84;20087;-67
2022/06/08 11:36:44;;;;;;;;;;;;;;;32.02;24.92;99087.16;1690451;85;20100;-68
2022/06/08 11:39:20;;;;;;;;;;;;;;;31.90;25.75;99092.98;1688083;85;21140;-67
2022/06/08 11:42:06;;;;;;;;;;;;;;;31.95;24.72;99087.47;1688008;85;20490;-67
2022/06/08 11:44:34;;;;;;;;;;;;;;;31.96;26.07;99086.20;1688137;85;20088;-67
2022/06/08 11:47:04;;;;;;;;;;;;;;;32.01;24.96;99090.47;1688058;85;20459;-67
2022/06/08 11:49:38;;;;;;;;;;;;;;;31.96;24.96;99091.09;1688067;85;20435;-68
2022/06/08 11:52:25;;;;;;;;;;;;;;;32.06;24.95;99078.48;1688027;85;21136;-68
2022/06/08 11:55:08;;;;;;;;;;;;;;;32.36;25.27;99077.52;1688043;85;20526;-68
2022/06/08 11:57:37;;;;;;;;;;;;;;;32.61;24.46;99081.27;1694842;83;20240;-67
2022/06/08 12:00:06;;;;;;;;;;;;;;;32.75;24.46;99075.73;1712543;83;20141;-68
2022/06/08 12:02:36;;;;;;;;;;;;;;;32.84;23.81;99072.72;1716417;83;20436;-67
2022/06/08 12:05:03;;;;;;;;;;;;;;;32.98;25.32;99064.90;1717089;83;21171;-67
2022/06/08 12:07:45;;;;;;;;;;;;;;;33.23;25.19;99065.10;1716656;83;20121;-68
2022/06/08 12:10:19;;;;;;;;;;;;;;;33.38;25.07;99067.42;1716840;83;20138;-67
2022/06/08 12:12:47;;;;;;;;;;;;;;;33.46;23.49;99062.32;1716831;83;20125;-67
2022/06/08 12:15:35;;;;;;;;;;;;;;;33.39;23.63;99070.42;1716795;83;20105;-67
2022/06/08 12:18:17;;;;;;;;;;;;;;;33.22;24.45;99059.27;1707287;82;21788;-67
2022/06/08 12:20:44;;;;;;;;;;;;;;;33.09;24.13;99065.17;1688322;85;20406;-67
2022/06/08 12:23:11;;;;;;;;;;;;;;;33.04;24.00;99056.66;1688138;85;20099;-67
2022/06/08 12:25:38;;;;;;;;;;;;;;;33.23;24.44;99058.78;1688103;85;20139;-66
2022/06/08 12:28:18;;;;;;;;;;;;;;;33.47;24.63;99051.73;1687999;85;20112;-67
2022/06/08 12:30:48;;;;;;;;;;;;;;;33.74;24.92;99055.00;1687966;84;21110;-66
2022/06/08 12:33:19;;;;;;;;;;;;;;;33.77;22.46;99051.17;1688000;85;20096;-66
2022/06/08 12:36:08;;;;;;;;;;;;;;;33.54;22.29;99047.70;1688872;85;20142;-68
2022/06/08 12:38:37;;;;;;;;;;;;;;;33.54;21.79;99045.64;1693282;84;20172;-67
2022/06/08 12:41:14;;;;;;;;;;;;;;;33.34;22.87;99043.42;1693343;85;20423;-67
2022/06/08 12:43:47;;;;;;;;;;;;;;;33.29;23.35;99047.56;1693334;85;21272;-67
2022/06/08 12:46:20;;;;;;;;;;;;;;;33.42;23.86;99036.11;1693206;85;20095;-67
2022/06/08 12:48:50;;;;;;;;;;;;;;;33.61;24.93;99043.07;1693334;85;20092;-68
2022/06/08 12:51:36;;;;;;;;;;;;;;;33.87;23.42;99029.94;1692401;85;20103;-67
2022/06/08 12:54:20;;;;;;;;;;;;;;;34.11;23.13;99032.70;1693471;84;20123;-69
2022/06/08 12:56:49;;;;;;;;;;;;;;;34.21;22.33;99030.56;1693336;85;21153;-68
2022/06/08 12:59:16;;;;;;;;;;;;;;;34.17;22.39;99025.70;1697377;82;20502;-71
2022/06/08 13:01:44;;;;;;;;;;;;;;;34.04;22.17;99026.78;1705942;83;20100;-73
2022/06/08 13:04:14;;;;;;;;;;;;;;;34.06;22.23;99032.00;1693500;84;20172;-70
2022/06/08 13:06:41;;;;;;;;;;;;;;;33.95;22.07;99022.59;1693292;84;20139;-69
2022/06/08 13:09:16;;;;;;;;;;;;;;;33.88;22.30;99018.70;1693312;85;21071;-68
2022/06/08 13:11:44;;;;;;;;;;;;;;;34.01;22.53;99016.38;1694269;82;20173;-66
2022/06/08 13:14:15;;;;;;;;;;;;;;;34.34;24.30;99015.43;1719124;83;20625;-67
2022/06/08 13:16:44;;;;;;;;;;;;;;;34.62;24.02;99020.19;1721803;83;20649;-66
2022/06/08 13:19:15;;;;;;;;;;;;;;;34.74;24.53;99011.30;1705284;83;20079;-66
2022/06/08 13:21:42;;;;;;;;;;;;;;;34.80;23.06;99012.84;1690939;84;21098;-66
2022/06/08 13:24:09;;;;;;;;;;;;;;;34.74;22.69;99011.94;1698275;82;20130;-66
2022/06/08 13:26:37;;;;;;;;;;;;;;;34.60;22.26;99015.63;1706213;83;20469;-66